Terminal Aerodrome Forecast
Issued by NWS Cleveland, OH

Home | Current Version | Previous Version | Graphics & Text | Print | Product List | Glossary On
Versions: 1 2 3 4 5 6 7 8 9 10 11 12 13 14 15 16 17 18 19 20 21 22 23 24 25 26 27 28 29
021
FTUS41 KCLE 260905 AAB
TAFCLE
TAF AMD
KCLE 260905Z 2609/2712 27008KT P6SM -SHSN BKN027 OVC040
      TEMPO 2609/2611 4SM -SHSN
     FM261300 26008KT P6SM OVC025
     FM261600 23008KT P6SM BKN035
     FM261900 21015G25KT P6SM SCT035 BKN070
     FM270000 21010KT P6SM SCT070=

USA.gov is the U.S. government's official web portal to all federal, state and local government web resources and services.